Time;durP1;ratioP1;P1;durP2;ratioP2;P2;SDS_P1;SDS_P2;PMS_P1;PMS_P2;Temp;Humidity;BMP_temperature;BMP_pressure;BME280_temperature;BME280_humidity;BME280_pressure;Samples;Min_cycle;Max_cycle;Signal;HPM_P1;HPM_P2
2022/05/22 00:00:25;;;;;;;14.63;3.23;;;;;;;;;;5091575;28;20471;-76
2022/05/22 00:02:52;;;;;;;15.00;3.07;;;;;;;;;;5092209;28;20817;-76
2022/05/22 00:05:21;;;;;;;16.63;3.33;;;;;;;;;;5091396;28;20444;-76
2022/05/22 00:07:48;;;;;;;15.53;3.30;;;;;;;;;;5091471;28;20440;-76
2022/05/22 00:10:16;;;;;;;14.80;3.20;;;;;;;;;;5091325;28;20993;-76
2022/05/22 00:12:44;;;;;;;15.23;3.50;;;;;;;;;;5095291;28;20436;-75
2022/05/22 00:15:14;;;;;;;16.93;3.53;;;;;;;;;;5095414;28;20474;-76
2022/05/22 00:17:43;;;;;;;14.40;3.13;;;;;;;;;;5095372;28;20808;-76
2022/05/22 00:20:12;;;;;;;15.07;3.60;;;;;;;;;;5095344;28;20446;-75
2022/05/22 00:22:40;;;;;;;14.20;3.20;;;;;;;;;;5095065;28;20444;-76
2022/05/22 00:25:10;;;;;;;15.47;3.43;;;;;;;;;;5095295;28;20446;-76
2022/05/22 00:27:38;;;;;;;18.60;3.70;;;;;;;;;;5094997;28;20434;-75
2022/05/22 00:30:06;;;;;;;14.80;2.93;;;;;;;;;;5095147;28;20453;-75
2022/05/22 00:32:34;;;;;;;18.53;3.90;;;;;;;;;;5094558;28;20500;-76
2022/05/22 00:35:03;;;;;;;17.83;3.70;;;;;;;;;;5094913;28;20854;-75
2022/05/22 00:37:31;;;;;;;20.57;3.77;;;;;;;;;;5094816;28;20434;-76
2022/05/22 00:39:59;;;;;;;15.60;3.50;;;;;;;;;;5095226;28;20438;-76
2022/05/22 00:42:26;;;;;;;14.03;3.13;;;;;;;;;;5094765;28;20495;-76
2022/05/22 00:44:54;;;;;;;15.63;2.90;;;;;;;;;;5094968;28;20952;-76
2022/05/22 00:47:22;;;;;;;14.53;3.27;;;;;;;;;;5094697;28;20434;-76
2022/05/22 00:49:51;;;;;;;15.47;3.67;;;;;;;;;;5094604;28;20445;-75
2022/05/22 00:52:22;;;;;;;20.50;3.67;;;;;;;;;;5094950;28;20804;-76
2022/05/22 00:54:51;;;;;;;14.80;3.27;;;;;;;;;;5094689;28;20816;-75
2022/05/22 00:57:21;;;;;;;15.20;3.57;;;;;;;;;;5094354;28;20454;-75
2022/05/22 00:59:50;;;;;;;16.93;3.20;;;;;;;;;;5094653;28;20438;-75
2022/05/22 01:02:18;;;;;;;13.90;3.30;;;;;;;;;;5094414;28;20442;-75
2022/05/22 01:04:48;;;;;;;15.60;3.30;;;;;;;;;;5094333;28;20450;-76
2022/05/22 01:07:16;;;;;;;15.37;3.20;;;;;;;;;;5094336;28;20434;-75
2022/05/22 01:09:45;;;;;;;14.50;3.33;;;;;;;;;;5094432;28;20849;-76
2022/05/22 01:12:15;;;;;;;15.67;3.63;;;;;;;;;;5094237;28;20457;-76
2022/05/22 01:14:43;;;;;;;14.87;3.53;;;;;;;;;;5094071;28;20486;-75
2022/05/22 01:17:12;;;;;;;15.57;3.70;;;;;;;;;;5094441;28;20434;-75
2022/05/22 01:19:39;;;;;;;15.33;3.30;;;;;;;;;;5094707;28;21024;-75
2022/05/22 01:22:09;;;;;;;13.60;3.20;;;;;;;;;;5093680;28;20442;-75
2022/05/22 01:24:37;;;;;;;14.33;3.27;;;;;;;;;;5094075;28;20449;-75
2022/05/22 01:27:07;;;;;;;17.00;3.47;;;;;;;;;;5093935;28;20438;-76
2022/05/22 01:29:35;;;;;;;15.33;3.40;;;;;;;;;;5093564;28;20450;-75
2022/05/22 01:32:02;;;;;;;14.90;4.37;;;;;;;;;;5093462;28;20794;-75
2022/05/22 01:34:30;;;;;;;16.53;3.67;;;;;;;;;;5093936;28;20482;-75
2022/05/22 01:36:57;;;;;;;15.50;3.70;;;;;;;;;;5093737;28;20448;-76
2022/05/22 01:39:26;;;;;;;17.67;3.83;;;;;;;;;;5093396;28;20446;-76
2022/05/22 01:41:54;;;;;;;16.63;4.23;;;;;;;;;;5093750;28;20813;-75
2022/05/22 01:44:22;;;;;;;17.33;4.30;;;;;;;;;;5093916;28;20861;-76
2022/05/22 01:46:50;;;;;;;16.07;3.63;;;;;;;;;;5093617;28;20444;-75
2022/05/22 01:49:17;;;;;;;15.63;3.33;;;;;;;;;;5093338;28;20807;-76
2022/05/22 01:51:45;;;;;;;14.50;3.40;;;;;;;;;;5093634;28;20438;-76
2022/05/22 01:54:13;;;;;;;15.53;3.80;;;;;;;;;;5093367;28;20500;-76
2022/05/22 01:56:42;;;;;;;18.13;3.77;;;;;;;;;;5093243;28;20959;-76
2022/05/22 01:59:09;;;;;;;15.23;3.87;;;;;;;;;;5093483;28;20442;-76
2022/05/22 02:01:37;;;;;;;15.60;3.87;;;;;;;;;;5093033;28;20442;-76
2022/05/22 02:04:05;;;;;;;18.10;4.53;;;;;;;;;;5093171;28;20518;-76
2022/05/22 02:06:32;;;;;;;16.90;4.73;;;;;;;;;;5093197;28;20951;-75
2022/05/22 02:08:59;;;;;;;16.23;3.50;;;;;;;;;;5093042;28;20444;-75
2022/05/22 02:11:26;;;;;;;16.67;4.80;;;;;;;;;;5093036;28;20482;-76
2022/05/22 02:13:55;;;;;;;15.70;4.60;;;;;;;;;;5092902;28;20485;-76
2022/05/22 02:16:22;;;;;;;22.90;3.93;;;;;;;;;;5093066;28;20444;-76
2022/05/22 02:18:50;;;;;;;16.97;4.07;;;;;;;;;;5092757;28;20472;-76
2022/05/22 02:21:20;;;;;;;17.90;4.80;;;;;;;;;;5092675;28;20438;-75
2022/05/22 02:23:47;;;;;;;13.30;3.43;;;;;;;;;;5092745;28;20446;-75
2022/05/22 02:26:14;;;;;;;14.40;3.13;;;;;;;;;;5092726;28;20442;-76
2022/05/22 02:28:42;;;;;;;13.70;3.40;;;;;;;;;;5092837;28;20954;-75
2022/05/22 02:31:11;;;;;;;15.03;4.07;;;;;;;;;;5092780;28;20462;-76
2022/05/22 02:33:38;;;;;;;15.57;3.73;;;;;;;;;;5091476;28;20459;-75
2022/05/22 02:36:08;;;;;;;16.40;3.90;;;;;;;;;;5092368;28;20489;-76
2022/05/22 02:38:36;;;;;;;21.63;4.40;;;;;;;;;;5092536;28;20946;-76
2022/05/22 02:41:10;;;;;;;19.63;4.30;;;;;;;;;;5092472;28;20453;-76
2022/05/22 02:43:37;;;;;;;16.27;4.30;;;;;;;;;;5092605;28;20849;-76
2022/05/22 02:46:09;;;;;;;17.07;4.43;;;;;;;;;;5092553;28;20445;-76
2022/05/22 02:48:37;;;;;;;18.43;4.30;;;;;;;;;;5092449;28;20426;-75
2022/05/22 02:51:05;;;;;;;14.33;3.73;;;;;;;;;;5092677;28;20805;-75
2022/05/22 02:53:33;;;;;;;16.00;4.10;;;;;;;;;;5092344;28;20537;-75
2022/05/22 02:56:08;;;;;;;19.03;3.97;;;;;;;;;;5092318;28;20489;-75
2022/05/22 02:58:35;;;;;;;16.93;3.70;;;;;;;;;;5092261;28;20492;-76
2022/05/22 03:01:03;;;;;;;13.57;3.40;;;;;;;;;;5092145;28;20442;-75
2022/05/22 03:03:31;;;;;;;18.00;4.10;;;;;;;;;;5092000;28;20438;-75
2022/05/22 03:08:42;;;;;;;16.63;4.10;;;;;;;;;;5079092;28;20441;-76
2022/05/22 03:11:10;;;;;;;15.70;3.33;;;;;;;;;;5092249;28;20454;-76
2022/05/22 03:13:37;;;;;;;16.50;4.23;;;;;;;;;;5091812;28;20441;-75
2022/05/22 03:16:05;;;;;;;18.17;4.93;;;;;;;;;;5091893;28;20555;-75
2022/05/22 03:18:32;;;;;;;16.80;3.97;;;;;;;;;;5091954;28;20477;-76
2022/05/22 03:21:01;;;;;;;16.20;3.50;;;;;;;;;;5091898;28;20449;-76
2022/05/22 03:23:29;;;;;;;17.53;3.97;;;;;;;;;;5091792;28;20508;-75
2022/05/22 03:25:57;;;;;;;20.57;4.10;;;;;;;;;;5092040;28;20479;-76
2022/05/22 03:28:24;;;;;;;18.20;3.97;;;;;;;;;;5091814;28;20959;-75
2022/05/22 03:30:52;;;;;;;17.20;3.87;;;;;;;;;;5092215;28;20449;-75
2022/05/22 03:33:19;;;;;;;15.70;3.57;;;;;;;;;;5091746;28;20457;-75
2022/05/22 03:35:47;;;;;;;16.53;3.03;;;;;;;;;;5091985;28;20477;-75
2022/05/22 03:38:16;;;;;;;15.50;3.53;;;;;;;;;;5091877;28;20434;-76
2022/05/22 03:40:47;;;;;;;14.10;3.00;;;;;;;;;;5091710;28;20441;-76
2022/05/22 03:43:14;;;;;;;14.93;3.80;;;;;;;;;;5091554;28;21020;-75
2022/05/22 03:45:42;;;;;;;14.40;3.17;;;;;;;;;;5093573;28;20437;-76
2022/05/22 03:48:09;;;;;;;14.97;3.23;;;;;;;;;;5095956;28;20460;-75
2022/05/22 03:50:37;;;;;;;16.43;3.27;;;;;;;;;;5095775;28;20975;-76
2022/05/22 03:53:05;;;;;;;14.57;3.30;;;;;;;;;;5095785;28;20435;-76
2022/05/22 03:55:34;;;;;;;17.30;4.20;;;;;;;;;;5095270;28;20478;-75
2022/05/22 03:58:01;;;;;;;19.57;3.40;;;;;;;;;;5095613;28;20440;-75
2022/05/22 04:00:29;;;;;;;14.40;3.40;;;;;;;;;;5095814;28;20471;-76
2022/05/22 04:02:57;;;;;;;15.43;2.83;;;;;;;;;;5095673;28;20446;-75
2022/05/22 04:05:24;;;;;;;18.07;4.10;;;;;;;;;;5095383;28;20442;-76
2022/05/22 04:07:51;;;;;;;16.63;3.60;;;;;;;;;;5095526;28;20440;-75
2022/05/22 04:10:19;;;;;;;14.67;3.37;;;;;;;;;;5095415;28;20481;-76
2022/05/22 04:12:48;;;;;;;12.77;2.63;;;;;;;;;;5095654;28;20877;-76
2022/05/22 04:15:18;;;;;;;14.20;3.63;;;;;;;;;;5095262;28;20577;-76
2022/05/22 04:17:46;;;;;;;13.53;3.27;;;;;;;;;;5095154;28;20477;-76
2022/05/22 04:20:14;;;;;;;21.43;4.03;;;;;;;;;;5095204;28;20941;-76
2022/05/22 04:25:23;;;;;;;15.97;3.57;;;;;;;;;;5094222;28;20431;-75
2022/05/22 04:27:52;;;;;;;18.50;3.43;;;;;;;;;;5095253;28;20444;-75
2022/05/22 04:30:20;;;;;;;15.47;3.10;;;;;;;;;;5095180;28;20448;-76
2022/05/22 04:32:48;;;;;;;17.37;3.50;;;;;;;;;;5094777;28;20461;-76
2022/05/22 04:35:15;;;;;;;14.07;3.47;;;;;;;;;;5094573;28;21009;-74
2022/05/22 04:37:43;;;;;;;15.10;3.40;;;;;;;;;;5093868;28;20472;-72
2022/05/22 04:40:12;;;;;;;14.50;3.10;;;;;;;;;;5094362;28;20443;-72
2022/05/22 04:42:40;;;;;;;16.17;2.87;;;;;;;;;;5094101;28;20436;-72
2022/05/22 04:45:10;;;;;;;13.80;3.03;;;;;;;;;;5094265;28;20905;-72
2022/05/22 04:47:38;;;;;;;15.63;2.93;;;;;;;;;;5091530;28;20449;-73
2022/05/22 04:50:06;;;;;;;20.00;3.40;;;;;;;;;;5093970;28;20441;-73
2022/05/22 04:52:34;;;;;;;22.77;3.77;;;;;;;;;;5093163;28;20433;-73
2022/05/22 04:55:02;;;;;;;16.50;3.03;;;;;;;;;;5091320;28;20485;-74
2022/05/22 04:57:29;;;;;;;16.57;3.07;;;;;;;;;;5093472;28;20819;-73
2022/05/22 04:59:57;;;;;;;13.33;2.60;;;;;;;;;;5094310;28;20505;-74
2022/05/22 05:02:25;;;;;;;14.77;2.63;;;;;;;;;;5094384;28;20446;-76
2022/05/22 05:04:54;;;;;;;21.23;3.97;;;;;;;;;;5090797;28;20527;-75
2022/05/22 05:07:22;;;;;;;21.23;3.00;;;;;;;;;;5092054;28;20812;-72
2022/05/22 05:09:50;;;;;;;22.30;4.40;;;;;;;;;;5093097;28;20964;-72
2022/05/22 05:12:18;;;;;;;15.60;2.93;;;;;;;;;;5093549;28;20857;-72
2022/05/22 05:14:46;;;;;;;15.13;3.00;;;;;;;;;;5093137;28;20446;-72
2022/05/22 05:17:15;;;;;;;15.77;3.43;;;;;;;;;;5090627;28;20461;-72
2022/05/22 05:19:44;;;;;;;20.60;3.20;;;;;;;;;;5093478;28;20466;-72
2022/05/22 05:22:12;;;;;;;16.10;3.30;;;;;;;;;;5092155;28;20450;-72
2022/05/22 05:24:40;;;;;;;19.33;3.00;;;;;;;;;;5092763;28;20837;-72
2022/05/22 05:27:07;;;;;;;13.87;3.53;;;;;;;;;;5093228;28;20453;-74
2022/05/22 05:29:35;;;;;;;38.67;4.40;;;;;;;;;;5092812;28;20457;-72
2022/05/22 05:32:03;;;;;;;21.93;3.90;;;;;;;;;;5093670;28;20446;-72
2022/05/22 05:34:30;;;;;;;16.70;3.50;;;;;;;;;;5093313;28;20453;-72
2022/05/22 05:36:59;;;;;;;16.20;2.70;;;;;;;;;;5093156;28;20489;-74
2022/05/22 05:39:27;;;;;;;13.83;3.23;;;;;;;;;;5092466;28;20978;-71
2022/05/22 05:41:55;;;;;;;17.00;3.27;;;;;;;;;;5092868;28;20442;-71
2022/05/22 05:44:23;;;;;;;16.43;2.90;;;;;;;;;;5093355;28;20467;-72
2022/05/22 05:46:51;;;;;;;17.77;2.90;;;;;;;;;;5093146;28;20458;-71
2022/05/22 05:49:18;;;;;;;18.33;3.10;;;;;;;;;;5093017;28;20834;-70
2022/05/22 05:51:46;;;;;;;21.40;4.20;;;;;;;;;;5092880;28;20456;-71
2022/05/22 05:54:14;;;;;;;17.60;3.80;;;;;;;;;;5092217;28;20453;-71
2022/05/22 05:56:42;;;;;;;15.23;3.30;;;;;;;;;;5092540;28;21029;-73
2022/05/22 05:59:10;;;;;;;15.27;3.10;;;;;;;;;;5092755;28;20473;-71
2022/05/22 06:01:38;;;;;;;20.60;2.47;;;;;;;;;;5092545;28;20446;-71
2022/05/22 06:04:05;;;;;;;17.37;2.93;;;;;;;;;;5091033;28;20453;-72
2022/05/22 06:06:33;;;;;;;15.17;2.80;;;;;;;;;;5092663;28;20889;-72
2022/05/22 06:09:00;;;;;;;16.13;3.00;;;;;;;;;;5091478;28;20461;-72
2022/05/22 06:11:29;;;;;;;22.57;3.97;;;;;;;;;;5092599;28;20463;-71
2022/05/22 06:13:57;;;;;;;20.00;2.80;;;;;;;;;;5092365;28;20450;-70
2022/05/22 06:16:26;;;;;;;16.30;3.57;;;;;;;;;;5091687;28;20548;-72
2022/05/22 06:18:53;;;;;;;17.93;4.17;;;;;;;;;;5091830;28;20462;-71
2022/05/22 06:21:22;;;;;;;13.87;2.77;;;;;;;;;;5091810;28;20465;-71
2022/05/22 06:23:50;;;;;;;19.00;3.37;;;;;;;;;;5092120;28;20443;-74
2022/05/22 06:26:19;;;;;;;20.17;3.47;;;;;;;;;;5086114;28;20460;-76
2022/05/22 06:28:48;;;;;;;18.23;2.77;;;;;;;;;;5092549;28;20467;-71
2022/05/22 06:31:16;;;;;;;19.63;3.20;;;;;;;;;;5092130;28;20446;-72
2022/05/22 06:33:44;;;;;;;14.77;2.80;;;;;;;;;;5091902;28;20466;-72
2022/05/22 06:36:12;;;;;;;22.33;3.27;;;;;;;;;;5091776;28;20483;-72
2022/05/22 06:41:25;;;;;;;14.30;2.93;;;;;;;;;;5092145;28;20972;-73
2022/05/22 06:43:54;;;;;;;16.37;2.60;;;;;;;;;;5092067;28;20461;-72
2022/05/22 06:46:28;;;;;;;16.40;2.90;;;;;;;;;;5091918;28;20451;-74
2022/05/22 06:48:56;;;;;;;17.70;3.33;;;;;;;;;;5092049;28;20452;-73
2022/05/22 06:51:24;;;;;;;16.57;3.97;;;;;;;;;;5091463;28;20486;-74
2022/05/22 06:53:53;;;;;;;16.03;3.03;;;;;;;;;;5091249;28;20533;-73
2022/05/22 06:56:23;;;;;;;16.20;3.40;;;;;;;;;;5091843;28;20477;-74
2022/05/22 06:58:52;;;;;;;18.07;3.13;;;;;;;;;;5091836;28;20452;-74
2022/05/22 07:01:21;;;;;;;15.90;3.40;;;;;;;;;;5091580;28;20457;-73
2022/05/22 07:03:49;;;;;;;17.20;4.03;;;;;;;;;;5091257;28;20449;-74
2022/05/22 07:06:17;;;;;;;15.00;4.00;;;;;;;;;;5090481;28;20445;-71
2022/05/22 07:08:44;;;;;;;16.03;2.93;;;;;;;;;;5091474;28;20442;-71
2022/05/22 07:13:58;;;;;;;20.60;3.97;;;;;;;;;;5091844;28;20490;-71
2022/05/22 07:16:26;;;;;;;17.50;3.30;;;;;;;;;;5092643;28;20825;-71
2022/05/22 07:18:54;;;;;;;19.20;4.40;;;;;;;;;;5091677;28;20848;-70
2022/05/22 07:21:22;;;;;;;21.90;3.73;;;;;;;;;;5089871;28;20457;-70
2022/05/22 07:23:49;;;;;;;16.07;3.70;;;;;;;;;;5090544;28;20448;-71
2022/05/22 07:26:18;;;;;;;17.73;3.60;;;;;;;;;;5089585;28;20442;-70
2022/05/22 07:28:46;;;;;;;20.20;3.00;;;;;;;;;;5091160;28;20521;-70
2022/05/22 07:31:15;;;;;;;14.73;3.60;;;;;;;;;;5090766;28;20453;-70
2022/05/22 07:33:44;;;;;;;15.70;3.63;;;;;;;;;;5091154;28;20450;-71
2022/05/22 07:36:11;;;;;;;18.70;3.77;;;;;;;;;;5089835;28;20569;-71
2022/05/22 07:38:39;;;;;;;15.70;3.37;;;;;;;;;;5089620;28;20521;-71
2022/05/22 07:41:07;;;;;;;17.53;3.13;;;;;;;;;;5089765;28;20438;-71
2022/05/22 07:43:34;;;;;;;17.83;3.67;;;;;;;;;;5089536;28;20449;-70
2022/05/22 07:46:02;;;;;;;18.00;3.70;;;;;;;;;;5089923;28;20445;-71
2022/05/22 07:48:29;;;;;;;13.67;3.20;;;;;;;;;;5089498;28;20458;-70
2022/05/22 07:50:59;;;;;;;18.13;4.00;;;;;;;;;;5091137;28;20442;-70
2022/05/22 07:53:27;;;;;;;14.53;3.50;;;;;;;;;;5091670;28;20445;-71
2022/05/22 07:55:55;;;;;;;14.37;3.03;;;;;;;;;;5091575;28;20485;-71
2022/05/22 07:58:23;;;;;;;21.20;3.57;;;;;;;;;;5091621;28;20454;-71
2022/05/22 08:00:51;;;;;;;15.30;3.57;;;;;;;;;;5091722;28;20441;-71
2022/05/22 08:03:19;;;;;;;15.07;3.20;;;;;;;;;;5091314;28;20449;-71
2022/05/22 08:05:47;;;;;;;16.73;4.03;;;;;;;;;;5091537;28;20962;-71
2022/05/22 08:08:17;;;;;;;16.77;3.53;;;;;;;;;;5091637;28;20544;-71
2022/05/22 08:10:45;;;;;;;14.47;2.80;;;;;;;;;;5091455;28;20433;-70
2022/05/22 08:13:13;;;;;;;16.20;2.90;;;;;;;;;;5091458;28;20438;-71
2022/05/22 08:15:41;;;;;;;16.13;3.20;;;;;;;;;;5091313;28;20542;-70
2022/05/22 08:18:09;;;;;;;15.10;3.00;;;;;;;;;;5091722;28;20471;-70
2022/05/22 08:20:38;;;;;;;18.77;3.10;;;;;;;;;;5091719;28;20443;-70
2022/05/22 08:23:07;;;;;;;15.53;3.30;;;;;;;;;;5091389;28;20954;-70
2022/05/22 08:25:36;;;;;;;18.80;3.30;;;;;;;;;;5091240;28;20444;-71
2022/05/22 08:28:05;;;;;;;18.10;2.70;;;;;;;;;;5091329;28;20814;-71
2022/05/22 08:30:33;;;;;;;15.97;3.30;;;;;;;;;;5091255;28;20575;-71
2022/05/22 08:33:01;;;;;;;14.23;2.50;;;;;;;;;;5092993;28;20454;-70
2022/05/22 08:35:30;;;;;;;14.97;2.90;;;;;;;;;;5094711;28;20449;-70
2022/05/22 08:37:58;;;;;;;20.90;2.73;;;;;;;;;;5095327;28;20486;-70
2022/05/22 08:40:26;;;;;;;14.50;2.67;;;;;;;;;;5094891;28;20446;-70
2022/05/22 08:42:59;;;;;;;16.67;2.83;;;;;;;;;;5095131;28;20442;-71
2022/05/22 08:45:28;;;;;;;16.90;3.50;;;;;;;;;;5094675;28;20939;-70
2022/05/22 08:48:01;;;;;;;18.43;2.57;;;;;;;;;;5094690;28;20448;-70
2022/05/22 08:50:30;;;;;;;18.37;2.70;;;;;;;;;;5094754;28;20955;-70
2022/05/22 08:52:59;;;;;;;18.77;2.57;;;;;;;;;;5094586;28;20949;-70
2022/05/22 08:58:56;;;;;;;16.00;3.10;;;;;;;;;;5094301;28;20479;-71
2022/05/22 09:01:06;;;;;;;13.17;2.60;;;;;;;;;;5094577;28;20558;-71
2022/05/22 09:03:38;;;;;;;14.80;2.90;;;;;;;;;;5094084;28;20433;-71
2022/05/22 09:06:06;;;;;;;14.10;2.70;;;;;;;;;;5094392;28;21016;-71
2022/05/22 09:08:39;;;;;;;14.20;2.50;;;;;;;;;;5094292;28;20456;-71
2022/05/22 09:11:09;;;;;;;13.43;2.63;;;;;;;;;;5094407;28;20887;-71
2022/05/22 09:13:42;;;;;;;12.73;2.33;;;;;;;;;;5094083;28;20448;-71
2022/05/22 09:16:13;;;;;;;15.67;3.27;;;;;;;;;;5094063;28;20480;-68
2022/05/22 09:18:45;;;;;;;15.73;3.03;;;;;;;;;;5094487;28;20473;-71
2022/05/22 09:21:18;;;;;;;17.00;2.60;;;;;;;;;;5094104;28;20444;-71
2022/05/22 09:23:51;;;;;;;14.23;2.40;;;;;;;;;;5094341;28;20463;-70
2022/05/22 09:26:23;;;;;;;16.67;3.23;;;;;;;;;;5094212;28;20448;-71
2022/05/22 09:28:59;;;;;;;14.87;2.67;;;;;;;;;;5093967;28;20456;-69
2022/05/22 09:31:31;;;;;;;13.30;2.40;;;;;;;;;;5093828;28;20440;-69
2022/05/22 09:34:04;;;;;;;17.10;3.13;;;;;;;;;;5093521;28;20547;-69
2022/05/22 09:36:38;;;;;;;14.47;2.80;;;;;;;;;;5093742;28;20639;-69
2022/05/22 09:39:11;;;;;;;13.10;2.60;;;;;;;;;;5093795;28;20436;-69
2022/05/22 09:41:46;;;;;;;12.70;2.03;;;;;;;;;;5093877;28;20466;-69
2022/05/22 09:44:20;;;;;;;16.43;2.40;;;;;;;;;;5092868;28;20446;-69
2022/05/22 09:46:57;;;;;;;15.03;2.30;;;;;;;;;;5093072;28;20441;-74
2022/05/22 09:49:46;;;;;;;13.00;2.27;;;;;;;;;;5089141;28;20962;-71
2022/05/22 09:52:17;;;;;;;15.83;2.47;;;;;;;;;;5064407;28;20450;-70
2022/05/22 09:54:58;;;;;;;14.07;2.23;;;;;;;;;;5091805;28;20462;-74
2022/05/22 09:57:32;;;;;;;16.10;2.30;;;;;;;;;;5092134;28;20488;-73
2022/05/22 10:00:05;;;;;;;12.17;1.80;;;;;;;;;;5089435;28;20458;-72
2022/05/22 10:02:38;;;;;;;13.57;2.57;;;;;;;;;;5092394;28;20472;-72
2022/05/22 10:05:11;;;;;;;12.23;1.83;;;;;;;;;;5092411;28;20977;-71
2022/05/22 10:07:41;;;;;;;13.80;1.97;;;;;;;;;;5086422;28;20458;-69
2022/05/22 10:10:12;;;;;;;13.40;1.80;;;;;;;;;;5092255;28;20457;-70
2022/05/22 10:12:47;;;;;;;12.83;2.10;;;;;;;;;;5092515;28;20454;-69
2022/05/22 10:15:23;;;;;;;15.20;2.00;;;;;;;;;;5085664;28;20965;-68
2022/05/22 10:17:58;;;;;;;15.40;2.00;;;;;;;;;;5090006;28;20488;-70
2022/05/22 10:20:32;;;;;;;13.10;2.00;;;;;;;;;;5091357;28;20453;-71
2022/05/22 10:23:03;;;;;;;14.77;2.13;;;;;;;;;;5087101;28;20464;-72
2022/05/22 10:25:34;;;;;;;13.77;2.10;;;;;;;;;;5085610;28;20445;-71
2022/05/22 10:28:04;;;;;;;14.30;2.30;;;;;;;;;;5092317;28;20450;-71
2022/05/22 10:30:37;;;;;;;15.83;1.80;;;;;;;;;;5092408;28;20521;-71
2022/05/22 10:33:07;;;;;;;12.90;1.77;;;;;;;;;;5092005;28;20476;-71
2022/05/22 10:35:40;;;;;;;13.97;1.90;;;;;;;;;;5091852;28;20491;-70
2022/05/22 10:38:10;;;;;;;18.43;2.20;;;;;;;;;;5091438;28;20481;-69
2022/05/22 10:43:29;;;;;;;14.40;2.20;;;;;;;;;;5092127;28;20433;-70
2022/05/22 10:45:58;;;;;;;16.10;1.80;;;;;;;;;;5092079;28;20457;-69
2022/05/22 10:48:28;;;;;;;12.00;1.67;;;;;;;;;;5092279;28;20464;-70
2022/05/22 10:50:58;;;;;;;13.87;1.90;;;;;;;;;;5092183;28;20445;-71
2022/05/22 10:53:27;;;;;;;13.47;1.77;;;;;;;;;;5091235;28;21038;-70
2022/05/22 10:56:01;;;;;;;16.33;2.00;;;;;;;;;;5091466;28;20441;-71
2022/05/22 10:58:29;;;;;;;16.07;1.60;;;;;;;;;;5091938;28;20496;-71
2022/05/22 11:01:00;;;;;;;13.00;1.50;;;;;;;;;;5092089;28;20544;-72
2022/05/22 11:03:28;;;;;;;15.43;2.10;;;;;;;;;;5092004;28;20456;-70
2022/05/22 11:05:57;;;;;;;14.33;1.80;;;;;;;;;;5091884;28;20461;-71
2022/05/22 11:08:26;;;;;;;11.50;1.60;;;;;;;;;;5091140;28;20961;-72
2022/05/22 11:10:53;;;;;;;13.03;1.67;;;;;;;;;;5091405;28;20458;-70
2022/05/22 11:13:23;;;;;;;14.20;2.13;;;;;;;;;;5091796;28;20449;-71
2022/05/22 11:15:51;;;;;;;13.50;1.70;;;;;;;;;;5091617;28;20448;-70
2022/05/22 11:18:23;;;;;;;15.27;1.57;;;;;;;;;;5085270;28;20493;-71
2022/05/22 11:20:52;;;;;;;13.47;1.80;;;;;;;;;;5084805;28;20469;-71
2022/05/22 11:23:32;;;;;;;15.53;1.80;;;;;;;;;;5090571;28;20450;-71
2022/05/22 11:26:03;;;;;;;13.80;1.80;;;;;;;;;;5090320;28;20452;-70
2022/05/22 11:28:48;;;;;;;13.80;1.90;;;;;;;;;;5084722;28;20517;-71
2022/05/22 11:31:42;;;;;;;14.77;1.93;;;;;;;;;;5090525;28;20438;-72
2022/05/22 11:34:18;;;;;;;12.93;1.80;;;;;;;;;;5052036;28;20471;-71
2022/05/22 11:36:54;;;;;;;14.40;1.90;;;;;;;;;;5090496;28;20486;-70
2022/05/22 11:39:29;;;;;;;13.50;1.73;;;;;;;;;;5090903;28;20480;-73
2022/05/22 11:41:57;;;;;;;11.90;1.70;;;;;;;;;;5089613;28;20445;-71
2022/05/22 11:44:42;;;;;;;15.33;1.97;;;;;;;;;;5091150;28;20461;-71
2022/05/22 11:47:19;;;;;;;13.60;1.90;;;;;;;;;;5091444;28;20456;-71
2022/05/22 11:49:56;;;;;;;17.33;2.20;;;;;;;;;;5091360;28;20448;-71
2022/05/22 11:55:21;;;;;;;14.87;1.97;;;;;;;;;;5091209;28;20496;-70
2022/05/22 11:57:53;;;;;;;14.03;2.10;;;;;;;;;;5091202;28;21009;-70
2022/05/22 12:00:26;;;;;;;17.67;1.83;;;;;;;;;;5091343;28;20537;-71
2022/05/22 12:03:00;;;;;;;12.27;1.77;;;;;;;;;;5091231;28;20448;-71
2022/05/22 12:05:33;;;;;;;18.97;2.50;;;;;;;;;;5091155;28;20458;-70
2022/05/22 12:08:11;;;;;;;13.43;1.80;;;;;;;;;;5093046;28;20471;-70
2022/05/22 12:10:43;;;;;;;16.50;1.90;;;;;;;;;;5094221;28;20437;-70
2022/05/22 12:13:16;;;;;;;14.40;1.90;;;;;;;;;;5095329;28;20442;-70
2022/05/22 12:15:46;;;;;;;12.20;1.60;;;;;;;;;;5095324;28;20434;-69
2022/05/22 12:18:21;;;;;;;13.90;1.93;;;;;;;;;;5095111;28;21117;-70
2022/05/22 12:20:50;;;;;;;21.50;3.10;;;;;;;;;;5095347;28;20437;-70
2022/05/22 12:23:22;;;;;;;14.80;1.73;;;;;;;;;;5095072;28;20517;-71
2022/05/22 12:25:52;;;;;;;12.60;1.90;;;;;;;;;;5095610;28;20448;-70
2022/05/22 12:28:36;;;;;;;12.87;1.60;;;;;;;;;;5095044;28;20457;-70
2022/05/22 12:31:05;;;;;;;11.97;1.70;;;;;;;;;;5089384;28;20530;-71
2022/05/22 12:33:34;;;;;;;12.30;1.60;;;;;;;;;;5094133;28;21104;-70
2022/05/22 12:36:03;;;;;;;15.00;1.80;;;;;;;;;;5094283;28;20456;-71
2022/05/22 12:38:30;;;;;;;13.07;1.90;;;;;;;;;;5094258;28;20503;-70
2022/05/22 12:41:02;;;;;;;18.53;1.90;;;;;;;;;;5094311;28;20449;-70
2022/05/22 12:43:30;;;;;;;15.30;3.47;;;;;;;;;;5092258;28;20450;-71
2022/05/22 12:45:58;;;;;;;14.93;1.80;;;;;;;;;;5093794;28;20452;-70
2022/05/22 12:48:27;;;;;;;15.07;2.00;;;;;;;;;;5093158;28;20457;-70
2022/05/22 12:51:08;;;;;;;19.43;2.00;;;;;;;;;;5094127;28;20489;-70
2022/05/22 12:53:38;;;;;;;19.07;2.30;;;;;;;;;;5093604;28;20953;-70
2022/05/22 12:56:20;;;;;;;13.20;2.20;;;;;;;;;;5094375;28;20449;-70
2022/05/22 12:58:52;;;;;;;12.37;1.57;;;;;;;;;;5090180;28;20485;-70
2022/05/22 13:01:28;;;;;;;13.60;1.87;;;;;;;;;;5092806;28;20456;-70
2022/05/22 13:03:57;;;;;;;13.43;1.83;;;;;;;;;;5091123;28;20458;-70
2022/05/22 13:06:28;;;;;;;14.20;1.80;;;;;;;;;;5093590;28;20955;-72
2022/05/22 13:09:01;;;;;;;13.30;1.70;;;;;;;;;;5094187;28;20866;-71
2022/05/22 13:11:32;;;;;;;14.93;2.03;;;;;;;;;;5088823;28;20453;-70
2022/05/22 13:14:00;;;;;;;14.07;2.00;;;;;;;;;;5092473;28;20450;-70
2022/05/22 13:16:28;;;;;;;16.30;1.80;;;;;;;;;;5093337;28;20497;-70
2022/05/22 13:18:56;;;;;;;18.40;1.83;;;;;;;;;;5093020;28;20494;-72
2022/05/22 13:21:31;;;;;;;14.07;2.00;;;;;;;;;;5086315;28;20445;-70
2022/05/22 13:24:04;;;;;;;13.80;2.00;;;;;;;;;;5091361;28;20463;-71
2022/05/22 13:26:33;;;;;;;13.30;1.80;;;;;;;;;;5091528;28;20816;-71
2022/05/22 13:29:05;;;;;;;15.57;2.03;;;;;;;;;;5092364;28;20471;-69
2022/05/22 13:31:39;;;;;;;12.57;1.80;;;;;;;;;;5092724;28;20803;-70
2022/05/22 13:34:20;;;;;;;21.60;1.50;;;;;;;;;;5092906;28;20852;-70
2022/05/22 13:36:50;;;;;;;11.93;1.50;;;;;;;;;;5092542;28;20449;-70
2022/05/22 13:39:24;;;;;;;14.10;1.60;;;;;;;;;;5089454;28;21002;-68
2022/05/22 13:42:15;;;;;;;16.47;1.90;;;;;;;;;;5092684;28;20527;-70
2022/05/22 13:44:55;;;;;;;14.10;2.27;;;;;;;;;;5093234;28;20855;-70
2022/05/22 13:47:36;;;;;;;13.23;2.30;;;;;;;;;;5092823;28;20464;-70
2022/05/22 13:53:02;;;;;;;12.37;1.60;;;;;;;;;;5086381;28;20501;-69
2022/05/22 13:55:31;;;;;;;12.00;1.83;;;;;;;;;;5092305;28;20477;-70
2022/05/22 13:58:00;;;;;;;15.33;1.93;;;;;;;;;;5091797;28;20492;-69
2022/05/22 14:00:30;;;;;;;15.83;1.87;;;;;;;;;;5092934;28;20465;-69
2022/05/22 14:02:59;;;;;;;14.23;1.63;;;;;;;;;;5092418;28;20450;-69
2022/05/22 14:05:30;;;;;;;12.40;1.50;;;;;;;;;;5092035;28;20440;-70
2022/05/22 14:07:57;;;;;;;13.30;1.47;;;;;;;;;;5092448;28;20463;-69
2022/05/22 14:10:34;;;;;;;13.20;1.60;;;;;;;;;;5093100;28;20440;-69
2022/05/22 14:13:12;;;;;;;14.00;1.70;;;;;;;;;;5092342;28;20839;-69
2022/05/22 14:15:40;;;;;;;14.00;1.90;;;;;;;;;;5092803;28;20456;-70
2022/05/22 14:18:14;;;;;;;15.30;1.80;;;;;;;;;;5092619;28;20502;-70
2022/05/22 14:20:43;;;;;;;12.60;1.80;;;;;;;;;;5092925;28;20444;-70
2022/05/22 14:23:16;;;;;;;12.53;1.57;;;;;;;;;;5092458;28;20913;-70
2022/05/22 14:25:45;;;;;;;14.43;2.20;;;;;;;;;;5092599;28;20452;-68
2022/05/22 14:28:15;;;;;;;30.23;3.77;;;;;;;;;;5088308;28;20456;-70
2022/05/22 14:30:44;;;;;;;20.93;2.10;;;;;;;;;;5071234;28;20507;-70
2022/05/22 14:33:13;;;;;;;13.90;1.90;;;;;;;;;;5072321;28;20555;-69
2022/05/22 14:35:42;;;;;;;14.80;1.70;;;;;;;;;;5072388;28;20447;-70
2022/05/22 14:38:13;;;;;;;16.20;2.07;;;;;;;;;;5072786;28;20483;-69
2022/05/22 14:40:46;;;;;;;17.03;2.37;;;;;;;;;;5072344;28;20955;-70
2022/05/22 14:43:15;;;;;;;15.73;1.90;;;;;;;;;;5072273;28;20829;-70
2022/05/22 14:45:47;;;;;;;12.23;1.60;;;;;;;;;;5072495;28;20467;-69
2022/05/22 14:48:17;;;;;;;12.40;1.70;;;;;;;;;;5072850;28;20444;-69
2022/05/22 14:50:46;;;;;;;12.20;1.50;;;;;;;;;;5072404;28;20435;-70
2022/05/22 14:53:16;;;;;;;11.93;1.60;;;;;;;;;;5072096;28;20528;-70
2022/05/22 14:55:45;;;;;;;12.50;1.40;;;;;;;;;;5072071;28;20490;-70
2022/05/22 14:58:16;;;;;;;13.17;1.50;;;;;;;;;;5072703;28;20537;-70
2022/05/22 15:00:48;;;;;;;13.20;1.93;;;;;;;;;;5072162;28;20447;-71
2022/05/22 15:03:20;;;;;;;12.10;1.40;;;;;;;;;;5089003;28;20443;-70
2022/05/22 15:05:53;;;;;;;12.37;1.43;;;;;;;;;;5091375;28;20441;-70
2022/05/22 15:08:25;;;;;;;13.70;1.90;;;;;;;;;;5088862;28;21042;-70